sensor_id;sensor_type;location;lat;lon;timestamp;pressure;altitude;pressure_sealevel;temperature;humidity
43480;BME280;29067;35.492;-97.520;2023-05-10T00:01:17;96788.73;;;25.09;53.93
43480;BME280;29067;35.492;-97.520;2023-05-10T00:03:46;96791.04;;;24.93;53.63
43480;BME280;29067;35.492;-97.520;2023-05-10T00:06:14;96791.63;;;25.75;52.71
43480;BME280;29067;35.492;-97.520;2023-05-10T00:08:43;96784.21;;;26.57;51.44
43480;BME280;29067;35.492;-97.520;2023-05-10T00:11:11;96786.81;;;26.91;51.15
43480;BME280;29067;35.492;-97.520;2023-05-10T00:13:40;96785.43;;;26.24;52.24
43480;BME280;29067;35.492;-97.520;2023-05-10T00:16:07;96788.22;;;25.98;52.81
43480;BME280;29067;35.492;-97.520;2023-05-10T00:18:36;96793.40;;;26.00;52.44
43480;BME280;29067;35.492;-97.520;2023-05-10T00:21:04;96793.66;;;25.79;53.11
43480;BME280;29067;35.492;-97.520;2023-05-10T00:23:33;96790.17;;;26.45;52.51
43480;BME280;29067;35.492;-97.520;2023-05-10T00:26:00;96796.48;;;25.08;54.44
43480;BME280;29067;35.492;-97.520;2023-05-10T00:28:28;96797.62;;;26.32;52.93
43480;BME280;29067;35.492;-97.520;2023-05-10T00:30:57;96805.21;;;25.08;54.91
43480;BME280;29067;35.492;-97.520;2023-05-10T00:33:25;96806.61;;;25.27;55.37
43480;BME280;29067;35.492;-97.520;2023-05-10T00:35:53;96808.95;;;25.56;55.49
43480;BME280;29067;35.492;-97.520;2023-05-10T00:38:22;96804.89;;;26.72;53.03
43480;BME280;29067;35.492;-97.520;2023-05-10T00:40:50;96802.12;;;26.44;53.47
43480;BME280;29067;35.492;-97.520;2023-05-10T00:43:18;96802.64;;;26.63;53.28
43480;BME280;29067;35.492;-97.520;2023-05-10T00:45:46;96800.73;;;27.11;52.69
43480;BME280;29067;35.492;-97.520;2023-05-10T00:48:14;96802.64;;;26.18;54.26
43480;BME280;29067;35.492;-97.520;2023-05-10T00:50:42;96812.94;;;25.65;55.27
43480;BME280;29067;35.492;-97.520;2023-05-10T00:53:10;96815.56;;;24.59;57.15
43480;BME280;29067;35.492;-97.520;2023-05-10T00:55:40;96822.71;;;25.86;56.22
43480;BME280;29067;35.492;-97.520;2023-05-10T00:58:08;96826.81;;;25.67;55.75
43480;BME280;29067;35.492;-97.520;2023-05-10T01:00:36;96832.31;;;25.37;57.25
43480;BME280;29067;35.492;-97.520;2023-05-10T01:03:04;96832.18;;;24.67;58.44
43480;BME280;29067;35.492;-97.520;2023-05-10T01:05:33;96834.74;;;25.08;57.68
43480;BME280;29067;35.492;-97.520;2023-05-10T01:08:01;96843.00;;;24.48;59.02
43480;BME280;29067;35.492;-97.520;2023-05-10T01:10:29;96845.30;;;24.79;59.48
43480;BME280;29067;35.492;-97.520;2023-05-10T01:12:59;96848.71;;;25.54;57.49
43480;BME280;29067;35.492;-97.520;2023-05-10T01:15:28;96856.95;;;23.78;60.54
43480;BME280;29067;35.492;-97.520;2023-05-10T01:17:56;96856.06;;;25.27;59.13
43480;BME280;29067;35.492;-97.520;2023-05-10T01:20:25;96861.17;;;24.48;60.73
43480;BME280;29067;35.492;-97.520;2023-05-10T01:23:29;96865.00;;;24.04;61.70
43480;BME280;29067;35.492;-97.520;2023-05-10T01:27:17;96868.37;;;24.36;61.02
43480;BME280;29067;35.492;-97.520;2023-05-10T01:30:58;96873.75;;;23.84;63.06
43480;BME280;29067;35.492;-97.520;2023-05-10T01:33:33;96876.03;;;23.81;63.11
43480;BME280;29067;35.492;-97.520;2023-05-10T01:36:12;96875.66;;;24.50;60.85
43480;BME280;29067;35.492;-97.520;2023-05-10T01:38:45;96875.94;;;25.29;61.04
43480;BME280;29067;35.492;-97.520;2023-05-10T01:41:18;96885.74;;;24.83;60.43
43480;BME280;29067;35.492;-97.520;2023-05-10T01:43:52;96894.02;;;25.10;59.53
43480;BME280;29067;35.492;-97.520;2023-05-10T01:46:28;96892.49;;;25.87;58.13
43480;BME280;29067;35.492;-97.520;2023-05-10T01:48:58;96893.24;;;23.85;60.59
43480;BME280;29067;35.492;-97.520;2023-05-10T01:51:31;96905.92;;;23.78;61.91
43480;BME280;29067;35.492;-97.520;2023-05-10T01:54:04;96900.72;;;24.78;60.01
43480;BME280;29067;35.492;-97.520;2023-05-10T01:56:35;96912.38;;;24.02;60.58
43480;BME280;29067;35.492;-97.520;2023-05-10T01:59:08;96915.14;;;23.58;61.41
43480;BME280;29067;35.492;-97.520;2023-05-10T02:01:39;96919.13;;;24.17;61.17
43480;BME280;29067;35.492;-97.520;2023-05-10T02:04:09;96919.35;;;24.41;60.21
43480;BME280;29067;35.492;-97.520;2023-05-10T02:06:39;96920.17;;;24.82;59.29
43480;BME280;29067;35.492;-97.520;2023-05-10T02:09:09;96925.45;;;23.92;61.54
43480;BME280;29067;35.492;-97.520;2023-05-10T02:11:39;96930.95;;;23.87;61.24
43480;BME280;29067;35.492;-97.520;2023-05-10T02:14:10;96932.86;;;24.46;59.56
43480;BME280;29067;35.492;-97.520;2023-05-10T02:16:40;96930.88;;;23.81;61.95
43480;BME280;29067;35.492;-97.520;2023-05-10T02:19:09;96935.46;;;24.02;60.53
43480;BME280;29067;35.492;-97.520;2023-05-10T02:21:39;96941.01;;;23.30;61.24
43480;BME280;29067;35.492;-97.520;2023-05-10T02:24:07;96939.86;;;23.17;61.37
43480;BME280;29067;35.492;-97.520;2023-05-10T02:26:38;96944.28;;;23.53;59.59
43480;BME280;29067;35.492;-97.520;2023-05-10T02:29:07;96950.84;;;23.82;59.88
43480;BME280;29067;35.492;-97.520;2023-05-10T02:31:37;96953.09;;;24.22;59.41
43480;BME280;29067;35.492;-97.520;2023-05-10T02:34:06;96962.69;;;23.37;60.64
43480;BME280;29067;35.492;-97.520;2023-05-10T02:36:35;96969.95;;;23.62;59.39
43480;BME280;29067;35.492;-97.520;2023-05-10T02:39:04;96974.96;;;23.92;56.93
43480;BME280;29067;35.492;-97.520;2023-05-10T02:41:32;96982.34;;;21.68;59.93
43480;BME280;29067;35.492;-97.520;2023-05-10T02:44:08;96982.57;;;23.02;57.28
43480;BME280;29067;35.492;-97.520;2023-05-10T02:46:37;96983.87;;;24.14;56.42
43480;BME280;29067;35.492;-97.520;2023-05-10T02:49:05;96997.92;;;21.52;60.56
43480;BME280;29067;35.492;-97.520;2023-05-10T02:51:35;96987.73;;;21.97;60.68
43480;BME280;29067;35.492;-97.520;2023-05-10T02:54:11;96998.55;;;22.01;59.64
43480;BME280;29067;35.492;-97.520;2023-05-10T02:56:46;97000.98;;;23.47;56.96
43480;BME280;29067;35.492;-97.520;2023-05-10T02:59:15;97010.10;;;22.36;58.82
43480;BME280;29067;35.492;-97.520;2023-05-10T03:01:43;97013.45;;;23.10;57.14
43480;BME280;29067;35.492;-97.520;2023-05-10T03:04:11;97031.40;;;21.82;59.46
43480;BME280;29067;35.492;-97.520;2023-05-10T03:06:40;97037.61;;;22.20;58.50
43480;BME280;29067;35.492;-97.520;2023-05-10T03:09:08;97048.80;;;22.18;58.46
43480;BME280;29067;35.492;-97.520;2023-05-10T03:11:47;97060.76;;;22.13;58.86
43480;BME280;29067;35.492;-97.520;2023-05-10T03:14:25;97066.06;;;23.71;56.29
43480;BME280;29067;35.492;-97.520;2023-05-10T03:17:02;97077.05;;;23.33;56.27
43480;BME280;29067;35.492;-97.520;2023-05-10T03:19:37;97090.69;;;23.22;57.02
43480;BME280;29067;35.492;-97.520;2023-05-10T03:22:10;97091.26;;;23.32;56.82
43480;BME280;29067;35.492;-97.520;2023-05-10T03:24:41;97100.01;;;23.41;56.71
43480;BME280;29067;35.492;-97.520;2023-05-10T03:27:10;97110.69;;;21.72;58.67
43480;BME280;29067;35.492;-97.520;2023-05-10T03:29:39;97114.49;;;22.27;59.03
43480;BME280;29067;35.492;-97.520;2023-05-10T03:32:07;97119.46;;;23.20;57.90
43480;BME280;29067;35.492;-97.520;2023-05-10T03:34:42;97131.14;;;20.28;63.26
43480;BME280;29067;35.492;-97.520;2023-05-10T03:37:10;97129.87;;;21.94;60.18
43480;BME280;29067;35.492;-97.520;2023-05-10T03:39:38;97141.72;;;20.78;63.93
43480;BME280;29067;35.492;-97.520;2023-05-10T03:42:07;97139.42;;;21.80;60.64
43480;BME280;29067;35.492;-97.520;2023-05-10T03:44:34;97142.84;;;21.97;60.46
43480;BME280;29067;35.492;-97.520;2023-05-10T03:47:02;97149.51;;;22.05;60.77
43480;BME280;29067;35.492;-97.520;2023-05-10T03:49:30;97155.09;;;21.27;61.72
43480;BME280;29067;35.492;-97.520;2023-05-10T03:51:58;97161.54;;;21.29;63.30
43480;BME280;29067;35.492;-97.520;2023-05-10T03:54:26;97161.06;;;22.69;60.74
43480;BME280;29067;35.492;-97.520;2023-05-10T03:56:55;97169.34;;;21.16;62.85
43480;BME280;29067;35.492;-97.520;2023-05-10T03:59:23;97179.92;;;20.77;65.74
43480;BME280;29067;35.492;-97.520;2023-05-10T04:01:51;97177.90;;;20.38;67.39
43480;BME280;29067;35.492;-97.520;2023-05-10T04:04:19;97177.28;;;21.12;66.04
43480;BME280;29067;35.492;-97.520;2023-05-10T04:06:48;97170.70;;;20.81;65.60
43480;BME280;29067;35.492;-97.520;2023-05-10T04:09:15;97162.77;;;21.43;65.15
43480;BME280;29067;35.492;-97.520;2023-05-10T04:11:43;97155.90;;;21.85;62.99
43480;BME280;29067;35.492;-97.520;2023-05-10T04:14:11;97146.45;;;21.99;63.31
43480;BME280;29067;35.492;-97.520;2023-05-10T04:16:39;97137.46;;;21.83;63.55
43480;BME280;29067;35.492;-97.520;2023-05-10T04:19:07;97127.04;;;21.70;63.51
43480;BME280;29067;35.492;-97.520;2023-05-10T04:21:35;97118.94;;;22.26;63.15
43480;BME280;29067;35.492;-97.520;2023-05-10T04:24:04;97109.98;;;22.54;62.00
43480;BME280;29067;35.492;-97.520;2023-05-10T04:26:32;97108.54;;;23.15;60.08
43480;BME280;29067;35.492;-97.520;2023-05-10T04:28:59;97110.09;;;22.56;61.87
43480;BME280;29067;35.492;-97.520;2023-05-10T04:31:27;97113.09;;;21.87;65.22
43480;BME280;29067;35.492;-97.520;2023-05-10T04:33:55;97112.75;;;21.95;64.22
43480;BME280;29067;35.492;-97.520;2023-05-10T04:36:24;97111.73;;;22.43;63.67
43480;BME280;29067;35.492;-97.520;2023-05-10T04:38:52;97109.27;;;22.82;63.00
43480;BME280;29067;35.492;-97.520;2023-05-10T04:41:21;97107.33;;;24.23;60.04
43480;BME280;29067;35.492;-97.520;2023-05-10T04:43:49;97111.23;;;22.76;61.68
43480;BME280;29067;35.492;-97.520;2023-05-10T04:46:16;97115.86;;;22.58;63.35
43480;BME280;29067;35.492;-97.520;2023-05-10T04:48:45;97113.58;;;22.13;64.05
43480;BME280;29067;35.492;-97.520;2023-05-10T04:51:12;97110.80;;;21.80;65.03
43480;BME280;29067;35.492;-97.520;2023-05-10T04:53:41;97109.40;;;21.50;67.68
43480;BME280;29067;35.492;-97.520;2023-05-10T04:56:09;97102.18;;;22.38;63.89
43480;BME280;29067;35.492;-97.520;2023-05-10T04:58:37;97103.73;;;22.07;64.05
43480;BME280;29067;35.492;-97.520;2023-05-10T05:01:07;97108.74;;;20.15;68.76
43480;BME280;29067;35.492;-97.520;2023-05-10T05:03:35;97109.41;;;20.67;68.77
43480;BME280;29067;35.492;-97.520;2023-05-10T05:06:04;97110.35;;;20.07;72.28
43480;BME280;29067;35.492;-97.520;2023-05-10T05:08:33;97112.31;;;20.97;69.10
43480;BME280;29067;35.492;-97.520;2023-05-10T05:11:01;97114.89;;;20.27;71.05
43480;BME280;29067;35.492;-97.520;2023-05-10T05:13:29;97117.43;;;20.38;71.62
43480;BME280;29067;35.492;-97.520;2023-05-10T05:15:56;97113.32;;;20.13;73.13
43480;BME280;29067;35.492;-97.520;2023-05-10T05:18:25;97118.33;;;20.27;72.68
43480;BME280;29067;35.492;-97.520;2023-05-10T05:20:53;97114.64;;;19.50;74.58
43480;BME280;29067;35.492;-97.520;2023-05-10T05:23:20;97115.42;;;20.02;74.81
43480;BME280;29067;35.492;-97.520;2023-05-10T05:25:49;97118.46;;;19.10;77.81
43480;BME280;29067;35.492;-97.520;2023-05-10T05:28:17;97117.70;;;20.19;72.69
43480;BME280;29067;35.492;-97.520;2023-05-10T05:30:44;97120.36;;;20.30;72.56
43480;BME280;29067;35.492;-97.520;2023-05-10T05:33:14;97121.68;;;20.66;71.59
43480;BME280;29067;35.492;-97.520;2023-05-10T05:35:42;97117.24;;;19.68;73.40
43480;BME280;29067;35.492;-97.520;2023-05-10T05:38:10;97113.04;;;19.34;75.67
43480;BME280;29067;35.492;-97.520;2023-05-10T05:40:38;97109.39;;;19.79;70.86
43480;BME280;29067;35.492;-97.520;2023-05-10T05:43:06;97105.39;;;21.81;68.73
43480;BME280;29067;35.492;-97.520;2023-05-10T05:45:34;97107.54;;;21.74;67.91
43480;BME280;29067;35.492;-97.520;2023-05-10T05:48:03;97111.14;;;21.67;67.72
43480;BME280;29067;35.492;-97.520;2023-05-10T05:50:31;97108.66;;;21.68;67.55
43480;BME280;29067;35.492;-97.520;2023-05-10T05:53:00;97109.12;;;20.97;70.31
43480;BME280;29067;35.492;-97.520;2023-05-10T05:55:28;97104.77;;;20.42;71.68
43480;BME280;29067;35.492;-97.520;2023-05-10T05:57:56;97101.58;;;20.70;71.44
43480;BME280;29067;35.492;-97.520;2023-05-10T06:00:24;97098.85;;;20.48;72.07
43480;BME280;29067;35.492;-97.520;2023-05-10T06:02:53;97095.56;;;20.76;72.46
43480;BME280;29067;35.492;-97.520;2023-05-10T06:05:21;97091.25;;;22.36;67.90
43480;BME280;29067;35.492;-97.520;2023-05-10T06:07:50;97093.48;;;22.04;66.03
43480;BME280;29067;35.492;-97.520;2023-05-10T06:10:19;97101.33;;;20.83;71.41
43480;BME280;29067;35.492;-97.520;2023-05-10T06:12:47;97097.17;;;21.72;71.19
43480;BME280;29067;35.492;-97.520;2023-05-10T06:15:15;97101.19;;;20.95;72.52
43480;BME280;29067;35.492;-97.520;2023-05-10T06:17:43;97096.02;;;22.13;69.31
43480;BME280;29067;35.492;-97.520;2023-05-10T06:20:13;97105.00;;;21.63;71.03
43480;BME280;29067;35.492;-97.520;2023-05-10T06:22:41;97102.97;;;21.70;69.13
43480;BME280;29067;35.492;-97.520;2023-05-10T06:25:10;97110.03;;;21.26;70.62
43480;BME280;29067;35.492;-97.520;2023-05-10T06:27:38;97113.75;;;20.91;72.14
43480;BME280;29067;35.492;-97.520;2023-05-10T06:30:07;97109.33;;;21.36;70.06
43480;BME280;29067;35.492;-97.520;2023-05-10T06:32:35;97109.49;;;21.48;71.31
43480;BME280;29067;35.492;-97.520;2023-05-10T06:35:04;97105.05;;;22.28;69.23
43480;BME280;29067;35.492;-97.520;2023-05-10T06:37:32;97109.73;;;21.87;69.28
43480;BME280;29067;35.492;-97.520;2023-05-10T06:40:00;97114.91;;;21.73;69.45
43480;BME280;29067;35.492;-97.520;2023-05-10T06:42:28;97109.18;;;22.09;68.09
43480;BME280;29067;35.492;-97.520;2023-05-10T06:44:56;97116.88;;;20.30;70.73
43480;BME280;29067;35.492;-97.520;2023-05-10T06:47:24;97118.06;;;21.52;69.98
43480;BME280;29067;35.492;-97.520;2023-05-10T06:49:51;97124.62;;;21.47;69.39
43480;BME280;29067;35.492;-97.520;2023-05-10T06:52:19;97125.48;;;21.24;71.27
43480;BME280;29067;35.492;-97.520;2023-05-10T06:54:47;97126.23;;;21.87;68.77
43480;BME280;29067;35.492;-97.520;2023-05-10T06:57:15;97127.67;;;22.39;67.56
43480;BME280;29067;35.492;-97.520;2023-05-10T06:59:43;97136.37;;;20.95;68.52
43480;BME280;29067;35.492;-97.520;2023-05-10T07:02:12;97142.65;;;21.68;67.81
43480;BME280;29067;35.492;-97.520;2023-05-10T07:04:40;97145.14;;;21.38;69.36
43480;BME280;29067;35.492;-97.520;2023-05-10T07:07:07;97148.59;;;21.28;69.18
43480;BME280;29067;35.492;-97.520;2023-05-10T07:09:35;97150.92;;;21.28;68.95
43480;BME280;29067;35.492;-97.520;2023-05-10T07:12:05;97150.91;;;20.45;72.38
43480;BME280;29067;35.492;-97.520;2023-05-10T07:14:33;97151.96;;;21.02;71.06
43480;BME280;29067;35.492;-97.520;2023-05-10T07:17:01;97145.28;;;21.54;69.43
43480;BME280;29067;35.492;-97.520;2023-05-10T07:19:29;97141.57;;;21.94;68.34
43480;BME280;29067;35.492;-97.520;2023-05-10T07:21:58;97143.14;;;20.48;72.41
43480;BME280;29067;35.492;-97.520;2023-05-10T07:24:25;97143.56;;;21.22;70.04
43480;BME280;29067;35.492;-97.520;2023-05-10T07:26:54;97141.04;;;21.32;67.81
43480;BME280;29067;35.492;-97.520;2023-05-10T07:29:22;97140.63;;;22.79;66.36
43480;BME280;29067;35.492;-97.520;2023-05-10T07:31:50;97138.83;;;21.72;67.20
43480;BME280;29067;35.492;-97.520;2023-05-10T07:34:18;97138.17;;;21.75;67.04
43480;BME280;29067;35.492;-97.520;2023-05-10T07:36:46;97137.00;;;21.82;68.06
43480;BME280;29067;35.492;-97.520;2023-05-10T07:39:14;97136.11;;;21.96;65.35
43480;BME280;29067;35.492;-97.520;2023-05-10T07:41:42;97142.10;;;21.29;66.72
43480;BME280;29067;35.492;-97.520;2023-05-10T07:44:11;97145.31;;;21.45;67.33
43480;BME280;29067;35.492;-97.520;2023-05-10T07:46:39;97148.17;;;20.16;71.70
43480;BME280;29067;35.492;-97.520;2023-05-10T07:49:07;97151.41;;;19.96;72.31
43480;BME280;29067;35.492;-97.520;2023-05-10T07:51:35;97151.00;;;21.62;68.46
43480;BME280;29067;35.492;-97.520;2023-05-10T07:54:03;97155.73;;;20.17;69.54
43480;BME280;29067;35.492;-97.520;2023-05-10T07:56:32;97159.43;;;20.75;70.35
43480;BME280;29067;35.492;-97.520;2023-05-10T07:59:01;97155.06;;;22.38;66.84
43480;BME280;29067;35.492;-97.520;2023-05-10T08:01:31;97154.77;;;20.21;72.73
43480;BME280;29067;35.492;-97.520;2023-05-10T08:03:59;97159.72;;;19.69;75.03
43480;BME280;29067;35.492;-97.520;2023-05-10T08:06:28;97157.02;;;20.62;74.19
43480;BME280;29067;35.492;-97.520;2023-05-10T08:08:57;97164.21;;;20.27;74.58
43480;BME280;29067;35.492;-97.520;2023-05-10T08:11:25;97172.69;;;19.77;77.41
43480;BME280;29067;35.492;-97.520;2023-05-10T08:13:54;97183.63;;;20.27;76.26
43480;BME280;29067;35.492;-97.520;2023-05-10T08:16:22;97191.64;;;19.80;78.07
43480;BME280;29067;35.492;-97.520;2023-05-10T08:18:50;97194.26;;;18.77;84.67
43480;BME280;29067;35.492;-97.520;2023-05-10T08:21:19;97188.53;;;18.23;84.98
43480;BME280;29067;35.492;-97.520;2023-05-10T08:23:46;97180.62;;;20.23;78.30
43480;BME280;29067;35.492;-97.520;2023-05-10T08:26:15;97180.77;;;19.27;81.79
43480;BME280;29067;35.492;-97.520;2023-05-10T08:28:43;97183.87;;;19.10;81.58
43480;BME280;29067;35.492;-97.520;2023-05-10T08:31:11;97191.93;;;17.93;85.22
43480;BME280;29067;35.492;-97.520;2023-05-10T08:33:39;97195.63;;;17.57;88.51
43480;BME280;29067;35.492;-97.520;2023-05-10T08:36:07;97196.58;;;18.05;88.84
43480;BME280;29067;35.492;-97.520;2023-05-10T08:38:35;97194.09;;;18.31;84.27
43480;BME280;29067;35.492;-97.520;2023-05-10T08:41:03;97192.97;;;18.18;82.77
43480;BME280;29067;35.492;-97.520;2023-05-10T08:43:31;97191.60;;;17.34;83.51
43480;BME280;29067;35.492;-97.520;2023-05-10T08:46:01;97190.49;;;17.78;83.16
43480;BME280;29067;35.492;-97.520;2023-05-10T08:48:30;97191.70;;;17.35;85.08
43480;BME280;29067;35.492;-97.520;2023-05-10T08:51:03;97192.87;;;16.84;86.16
43480;BME280;29067;35.492;-97.520;2023-05-10T08:53:33;97189.80;;;18.05;82.03
43480;BME280;29067;35.492;-97.520;2023-05-10T08:56:05;97194.65;;;17.52;82.66
43480;BME280;29067;35.492;-97.520;2023-05-10T08:58:32;97185.65;;;17.92;79.60
43480;BME280;29067;35.492;-97.520;2023-05-10T09:01:01;97183.65;;;17.99;78.57
43480;BME280;29067;35.492;-97.520;2023-05-10T09:03:30;97184.99;;;18.11;78.14
43480;BME280;29067;35.492;-97.520;2023-05-10T09:05:58;97191.09;;;15.83;87.19
43480;BME280;29067;35.492;-97.520;2023-05-10T09:08:27;97196.60;;;17.18;83.74
43480;BME280;29067;35.492;-97.520;2023-05-10T09:10:55;97199.32;;;16.37;87.59
43480;BME280;29067;35.492;-97.520;2023-05-10T09:13:24;97196.22;;;16.64;86.03
43480;BME280;29067;35.492;-97.520;2023-05-10T09:15:53;97196.63;;;16.22;86.97
43480;BME280;29067;35.492;-97.520;2023-05-10T09:18:21;97194.44;;;17.79;80.11
43480;BME280;29067;35.492;-97.520;2023-05-10T09:20:49;97201.67;;;16.76;83.43
43480;BME280;29067;35.492;-97.520;2023-05-10T09:23:17;97204.09;;;16.11;91.20
43480;BME280;29067;35.492;-97.520;2023-05-10T09:25:47;97206.26;;;16.79;83.66
43480;BME280;29067;35.492;-97.520;2023-05-10T09:28:15;97197.71;;;17.38;82.98
43480;BME280;29067;35.492;-97.520;2023-05-10T09:30:43;97197.03;;;16.45;84.33
43480;BME280;29067;35.492;-97.520;2023-05-10T09:33:11;97197.10;;;15.08;95.96
43480;BME280;29067;35.492;-97.520;2023-05-10T09:35:38;97192.96;;;17.02;85.30
43480;BME280;29067;35.492;-97.520;2023-05-10T09:38:06;97188.77;;;17.06;81.36
43480;BME280;29067;35.492;-97.520;2023-05-10T09:40:34;97190.68;;;16.48;89.71
43480;BME280;29067;35.492;-97.520;2023-05-10T09:43:04;97187.06;;;18.45;80.68
43480;BME280;29067;35.492;-97.520;2023-05-10T09:45:35;97189.40;;;16.51;87.19
43480;BME280;29067;35.492;-97.520;2023-05-10T09:48:04;97185.40;;;17.66;81.15
43480;BME280;29067;35.492;-97.520;2023-05-10T09:50:31;97180.87;;;16.84;82.37
43480;BME280;29067;35.492;-97.520;2023-05-10T09:53:00;97172.17;;;18.35;76.58
43480;BME280;29067;35.492;-97.520;2023-05-10T09:55:40;97165.80;;;18.28;77.00
43480;BME280;29067;35.492;-97.520;2023-05-10T09:58:08;97162.12;;;17.96;74.38
43480;BME280;29067;35.492;-97.520;2023-05-10T10:00:38;97161.45;;;18.67;73.14
43480;BME280;29067;35.492;-97.520;2023-05-10T10:03:11;97164.32;;;17.74;76.28
43480;BME280;29067;35.492;-97.520;2023-05-10T10:05:41;97165.15;;;18.45;73.80
43480;BME280;29067;35.492;-97.520;2023-05-10T10:08:14;97166.92;;;18.23;72.45
43480;BME280;29067;35.492;-97.520;2023-05-10T10:10:43;97167.22;;;18.29;74.31
43480;BME280;29067;35.492;-97.520;2023-05-10T10:13:11;97172.15;;;17.87;77.27
43480;BME280;29067;35.492;-97.520;2023-05-10T10:15:40;97168.23;;;17.90;75.16
43480;BME280;29067;35.492;-97.520;2023-05-10T10:18:13;97164.44;;;17.89;76.23
43480;BME280;29067;35.492;-97.520;2023-05-10T10:20:41;97159.99;;;17.81;74.47
43480;BME280;29067;35.492;-97.520;2023-05-10T10:23:09;97160.77;;;18.88;73.15
43480;BME280;29067;35.492;-97.520;2023-05-10T10:25:38;97156.11;;;18.16;72.29
43480;BME280;29067;35.492;-97.520;2023-05-10T10:28:16;97156.53;;;18.11;73.79
43480;BME280;29067;35.492;-97.520;2023-05-10T10:30:51;97161.14;;;19.01;71.35
43480;BME280;29067;35.492;-97.520;2023-05-10T10:33:46;97169.32;;;17.00;78.03
43480;BME280;29067;35.492;-97.520;2023-05-10T10:36:19;97160.53;;;19.25;72.52
43480;BME280;29067;35.492;-97.520;2023-05-10T10:38:57;97162.63;;;17.96;73.76
43480;BME280;29067;35.492;-97.520;2023-05-10T10:41:30;97163.85;;;17.27;77.76
43480;BME280;29067;35.492;-97.520;2023-05-10T10:45:13;97157.56;;;18.56;73.99
43480;BME280;29067;35.492;-97.520;2023-05-10T10:47:41;97160.40;;;16.57;80.83
43480;BME280;29067;35.492;-97.520;2023-05-10T10:50:09;97148.05;;;18.53;73.68
43480;BME280;29067;35.492;-97.520;2023-05-10T10:52:38;97148.87;;;17.94;75.50
43480;BME280;29067;35.492;-97.520;2023-05-10T10:55:08;97150.26;;;18.27;74.06
43480;BME280;29067;35.492;-97.520;2023-05-10T10:57:46;97148.43;;;18.29;75.59
43480;BME280;29067;35.492;-97.520;2023-05-10T11:03:05;97147.59;;;18.11;72.74
43480;BME280;29067;35.492;-97.520;2023-05-10T11:05:36;97141.23;;;18.69;71.01
43480;BME280;29067;35.492;-97.520;2023-05-10T11:08:12;97134.85;;;19.40;69.17
43480;BME280;29067;35.492;-97.520;2023-05-10T11:10:48;97137.14;;;19.80;67.11
43480;BME280;29067;35.492;-97.520;2023-05-10T11:13:21;97136.34;;;19.95;65.40
43480;BME280;29067;35.492;-97.520;2023-05-10T11:15:54;97135.72;;;18.73;68.53
43480;BME280;29067;35.492;-97.520;2023-05-10T11:18:25;97136.71;;;18.95;68.68
43480;BME280;29067;35.492;-97.520;2023-05-10T11:20:57;97138.03;;;18.78;69.02
43480;BME280;29067;35.492;-97.520;2023-05-10T11:23:30;97142.83;;;19.17;66.74
43480;BME280;29067;35.492;-97.520;2023-05-10T11:26:00;97136.42;;;19.39;65.66
43480;BME280;29067;35.492;-97.520;2023-05-10T11:28:28;97139.58;;;19.84;65.60
43480;BME280;29067;35.492;-97.520;2023-05-10T11:30:57;97136.19;;;21.12;63.42
43480;BME280;29067;35.492;-97.520;2023-05-10T11:33:25;97132.43;;;20.59;62.84
43480;BME280;29067;35.492;-97.520;2023-05-10T11:35:53;97133.53;;;19.53;65.12
43480;BME280;29067;35.492;-97.520;2023-05-10T11:38:21;97129.59;;;18.74;67.22
43480;BME280;29067;35.492;-97.520;2023-05-10T11:40:52;97122.66;;;20.50;63.34
43480;BME280;29067;35.492;-97.520;2023-05-10T11:43:24;97124.47;;;18.78;65.56
43480;BME280;29067;35.492;-97.520;2023-05-10T11:45:55;97133.26;;;16.77;73.16
43480;BME280;29067;35.492;-97.520;2023-05-10T11:48:22;97130.56;;;18.06;70.08
43480;BME280;29067;35.492;-97.520;2023-05-10T11:50:50;97135.81;;;18.21;71.71
43480;BME280;29067;35.492;-97.520;2023-05-10T11:53:20;97131.11;;;18.56;69.30
43480;BME280;29067;35.492;-97.520;2023-05-10T11:55:49;97124.98;;;19.53;67.68
43480;BME280;29067;35.492;-97.520;2023-05-10T11:58:18;97128.22;;;18.52;70.34
43480;BME280;29067;35.492;-97.520;2023-05-10T12:00:47;97119.07;;;17.08;75.77
43480;BME280;29067;35.492;-97.520;2023-05-10T12:03:15;97121.70;;;16.98;78.90
43480;BME280;29067;35.492;-97.520;2023-05-10T12:05:43;97117.65;;;18.55;74.16
43480;BME280;29067;35.492;-97.520;2023-05-10T12:08:13;97111.39;;;17.61;73.88
43480;BME280;29067;35.492;-97.520;2023-05-10T12:10:41;97114.07;;;17.19;76.82
43480;BME280;29067;35.492;-97.520;2023-05-10T12:13:13;97109.99;;;17.80;75.47
43480;BME280;29067;35.492;-97.520;2023-05-10T12:15:41;97109.64;;;17.28;77.52
43480;BME280;29067;35.492;-97.520;2023-05-10T12:18:10;97109.85;;;17.42;77.39
43480;BME280;29067;35.492;-97.520;2023-05-10T12:20:38;97105.32;;;17.84;75.78
43480;BME280;29067;35.492;-97.520;2023-05-10T12:23:09;97102.02;;;17.43;77.03
43480;BME280;29067;35.492;-97.520;2023-05-10T12:25:38;97093.10;;;17.47;75.53
43480;BME280;29067;35.492;-97.520;2023-05-10T12:28:07;97085.58;;;17.94;75.02
43480;BME280;29067;35.492;-97.520;2023-05-10T12:30:36;97079.82;;;19.04;70.89
43480;BME280;29067;35.492;-97.520;2023-05-10T12:33:09;97082.90;;;17.90;74.56
43480;BME280;29067;35.492;-97.520;2023-05-10T12:35:46;97083.32;;;18.79;73.22
43480;BME280;29067;35.492;-97.520;2023-05-10T12:38:33;97086.22;;;19.00;71.50
43480;BME280;29067;35.492;-97.520;2023-05-10T12:41:03;97087.80;;;18.36;73.19
43480;BME280;29067;35.492;-97.520;2023-05-10T12:43:32;97086.71;;;18.03;73.79
43480;BME280;29067;35.492;-97.520;2023-05-10T12:46:06;97080.94;;;18.71;71.65
43480;BME280;29067;35.492;-97.520;2023-05-10T12:48:34;97090.62;;;18.32;72.54
43480;BME280;29067;35.492;-97.520;2023-05-10T12:51:03;97099.40;;;18.71;72.19
43480;BME280;29067;35.492;-97.520;2023-05-10T12:53:32;97104.12;;;18.74;70.87
43480;BME280;29067;35.492;-97.520;2023-05-10T12:56:00;97108.89;;;19.28;70.38
43480;BME280;29067;35.492;-97.520;2023-05-10T12:58:28;97111.97;;;18.29;74.08